createdAt,value
2022-11-23T00:00:55.881Z,0.00
2022-11-23T00:01:55.882Z,0.00
2022-11-23T00:02:55.807Z,0.00
2022-11-23T00:03:55.797Z,0.00
2022-11-23T00:04:55.780Z,0.00
2022-11-23T00:05:55.769Z,0.00
2022-11-23T00:06:55.872Z,0.00
2022-11-23T00:07:55.736Z,0.00
2022-11-23T00:08:55.725Z,0.00
2022-11-23T00:09:55.711Z,0.00
2022-11-23T00:10:55.694Z,0.00
2022-11-23T00:11:55.690Z,0.00
2022-11-23T00:12:55.677Z,0.00
2022-11-23T00:13:55.670Z,0.00
2022-11-23T00:14:55.646Z,0.00
2022-11-23T00:15:55.634Z,0.00
2022-11-23T00:16:55.613Z,0.00
2022-11-23T00:17:55.602Z,0.00
2022-11-23T00:18:55.587Z,0.00
2022-11-23T00:19:55.582Z,0.00
2022-11-23T00:20:55.562Z,0.00
2022-11-23T00:21:55.550Z,0.00
2022-11-23T00:22:55.562Z,0.00
2022-11-23T00:23:55.532Z,0.00
2022-11-23T00:24:55.551Z,0.00
2022-11-23T00:25:55.501Z,0.00
2022-11-23T00:26:55.485Z,0.00
2022-11-23T00:27:55.474Z,0.00
2022-11-23T00:28:55.457Z,0.00
2022-11-23T00:29:55.447Z,0.00
2022-11-23T00:30:55.433Z,0.00
2022-11-23T00:31:55.420Z,0.00
2022-11-23T00:32:55.406Z,0.00
2022-11-23T00:33:55.395Z,0.00
2022-11-23T00:34:55.380Z,0.00
2022-11-23T00:35:55.365Z,0.00
2022-11-23T00:36:55.353Z,0.00
2022-11-23T00:37:55.355Z,0.00
2022-11-23T00:38:55.359Z,0.00
2022-11-23T00:39:55.311Z,0.00
2022-11-23T00:40:55.302Z,0.00
2022-11-23T00:41:55.291Z,0.00
2022-11-23T00:42:55.276Z,0.00
2022-11-23T00:43:55.265Z,0.00
2022-11-23T00:44:55.256Z,0.00
2022-11-23T00:45:55.237Z,0.00
2022-11-23T00:46:55.224Z,0.00
2022-11-23T00:47:55.218Z,0.00
2022-11-23T00:48:55.199Z,0.00
2022-11-23T00:49:55.182Z,0.00
2022-11-23T00:50:55.169Z,0.00
2022-11-23T00:51:55.161Z,0.00
2022-11-23T00:52:55.146Z,0.00
2022-11-23T00:53:55.129Z,0.00
2022-11-23T00:54:55.137Z,0.00
2022-11-23T00:55:55.099Z,0.00
2022-11-23T00:56:55.093Z,0.00
2022-11-23T00:57:55.074Z,0.00
2022-11-23T00:58:55.062Z,0.00
2022-11-23T00:59:55.055Z,0.00
2022-11-23T01:00:55.044Z,0.00
2022-11-23T01:01:55.056Z,0.00
2022-11-23T01:02:55.004Z,0.00
2022-11-23T01:03:54.997Z,0.00
2022-11-23T01:04:54.983Z,0.00
2022-11-23T01:05:54.969Z,0.00
2022-11-23T01:06:54.957Z,0.00
2022-11-23T01:07:54.943Z,0.00
2022-11-23T01:08:54.936Z,0.00
2022-11-23T01:09:54.917Z,0.00
2022-11-23T01:10:55.034Z,0.00
2022-11-23T01:11:54.887Z,0.00
2022-11-23T01:12:54.878Z,0.00
2022-11-23T01:13:54.866Z,0.00
2022-11-23T01:14:54.855Z,0.00
2022-11-23T01:15:54.842Z,0.00
2022-11-23T01:16:54.824Z,0.00
2022-11-23T01:17:54.816Z,0.00
2022-11-23T01:18:54.797Z,0.00
2022-11-23T01:19:54.785Z,0.00
2022-11-23T01:20:54.780Z,0.00
2022-11-23T01:21:54.761Z,0.00
2022-11-23T01:22:54.744Z,0.00
2022-11-23T01:23:54.734Z,0.00
2022-11-23T01:24:54.720Z,0.00
2022-11-23T01:25:57.198Z,0.00
2022-11-23T01:26:54.711Z,0.00
2022-11-23T01:27:54.678Z,0.00
2022-11-23T01:28:54.671Z,0.00
2022-11-23T01:29:54.660Z,0.00
2022-11-23T01:30:54.645Z,0.00
2022-11-23T01:31:54.625Z,0.00
2022-11-23T01:32:54.612Z,0.00
2022-11-23T01:33:54.602Z,0.00
2022-11-23T01:34:54.589Z,0.00
2022-11-23T01:35:54.574Z,0.00
2022-11-23T01:36:54.562Z,0.00
2022-11-23T01:37:54.543Z,0.00
2022-11-23T01:38:54.531Z,0.00
2022-11-23T01:39:54.531Z,0.00
2022-11-23T01:40:54.501Z,0.00
2022-11-23T01:41:54.492Z,0.00
2022-11-23T01:42:54.499Z,0.00
2022-11-23T01:43:54.474Z,0.00
2022-11-23T01:44:54.448Z,0.00
2022-11-23T01:45:54.433Z,0.00
2022-11-23T01:46:54.422Z,0.00
2022-11-23T01:47:54.412Z,0.00
2022-11-23T01:48:54.401Z,0.00
2022-11-23T01:49:54.389Z,0.00
2022-11-23T01:50:54.365Z,0.00
2022-11-23T01:51:54.353Z,0.00
2022-11-23T01:52:54.340Z,0.00
2022-11-23T01:53:54.329Z,0.00
2022-11-23T01:54:54.313Z,0.00
2022-11-23T01:55:54.304Z,0.00
2022-11-23T01:56:54.288Z,0.00
2022-11-23T01:57:54.279Z,0.00
2022-11-23T01:58:54.323Z,0.00
2022-11-23T01:59:54.253Z,0.00
2022-11-23T02:00:54.293Z,0.00
2022-11-23T02:01:54.221Z,0.00
2022-11-23T02:02:54.205Z,0.00
2022-11-23T02:03:54.209Z,0.00
2022-11-23T02:04:54.183Z,0.00
2022-11-23T02:05:54.173Z,0.00
2022-11-23T02:06:54.159Z,0.00
2022-11-23T02:07:54.199Z,0.00
2022-11-23T02:08:54.130Z,0.00
2022-11-23T02:09:54.118Z,0.00
2022-11-23T02:10:54.104Z,0.00
2022-11-23T02:11:54.091Z,0.00
2022-11-23T02:12:54.080Z,0.00
2022-11-23T02:13:54.062Z,0.00
2022-11-23T02:14:54.076Z,0.00
2022-11-23T02:15:54.040Z,0.00
2022-11-23T02:16:54.023Z,0.00
2022-11-23T02:17:54.015Z,0.00
2022-11-23T02:18:53.995Z,0.00
2022-11-23T02:19:53.990Z,0.00
2022-11-23T02:20:53.971Z,0.00
2022-11-23T02:21:53.957Z,0.00
2022-11-23T02:22:53.943Z,0.00
2022-11-23T02:23:53.929Z,0.00
2022-11-23T02:24:53.920Z,0.00
2022-11-23T02:25:53.907Z,0.00
2022-11-23T02:26:53.896Z,0.00
2022-11-23T02:27:53.886Z,0.00
2022-11-23T02:28:53.868Z,0.00
2022-11-23T02:29:53.850Z,0.00
2022-11-23T02:30:53.865Z,0.00
2022-11-23T02:31:53.822Z,0.00
2022-11-23T02:32:53.816Z,0.00
2022-11-23T02:33:53.800Z,0.00
2022-11-23T02:34:53.786Z,0.00
2022-11-23T02:35:53.772Z,0.00
2022-11-23T02:36:53.758Z,0.00
2022-11-23T02:37:53.747Z,0.00
2022-11-23T02:38:53.735Z,0.00
2022-11-23T02:39:53.719Z,0.00
2022-11-23T02:40:53.702Z,0.00
2022-11-23T02:41:53.687Z,0.00
2022-11-23T02:42:53.675Z,0.00
2022-11-23T02:43:53.667Z,0.00
2022-11-23T02:44:53.649Z,0.00
2022-11-23T02:45:53.636Z,0.00
2022-11-23T02:46:53.679Z,0.00
2022-11-23T02:47:53.608Z,0.00
2022-11-23T02:48:53.594Z,0.00
2022-11-23T02:49:53.576Z,0.00
2022-11-23T02:50:53.565Z,0.00
2022-11-23T02:51:53.553Z,0.00
2022-11-23T02:52:53.544Z,0.00
2022-11-23T02:53:53.527Z,0.00
2022-11-23T02:54:53.513Z,0.00
2022-11-23T02:55:53.498Z,0.00
2022-11-23T02:56:53.484Z,0.00
2022-11-23T02:57:53.467Z,0.00
2022-11-23T02:58:53.459Z,0.00
2022-11-23T02:59:53.445Z,0.00
2022-11-23T03:00:53.462Z,0.00
2022-11-23T03:01:53.418Z,0.00
2022-11-23T03:02:53.432Z,0.00
2022-11-23T03:03:53.395Z,0.00
2022-11-23T03:04:53.381Z,0.00
2022-11-23T03:05:53.362Z,0.00
2022-11-23T03:06:53.351Z,0.00
2022-11-23T03:07:53.359Z,0.00
2022-11-23T03:08:53.324Z,0.00
2022-11-23T03:09:53.315Z,0.00
2022-11-23T03:10:53.304Z,0.00
2022-11-23T03:11:53.284Z,0.00
2022-11-23T03:12:53.268Z,0.00
2022-11-23T03:13:53.252Z,0.00
2022-11-23T03:14:53.241Z,0.00
2022-11-23T03:15:53.226Z,0.00
2022-11-23T03:16:53.219Z,0.00
2022-11-23T03:17:53.204Z,0.00
2022-11-23T03:18:53.218Z,0.00
2022-11-23T03:19:53.184Z,0.00
2022-11-23T03:20:53.171Z,0.00
2022-11-23T03:21:53.157Z,0.00
2022-11-23T03:22:53.137Z,0.00
2022-11-23T03:23:53.128Z,0.00
2022-11-23T03:24:53.112Z,0.00
2022-11-23T03:25:53.093Z,0.00
2022-11-23T03:26:53.079Z,0.00
2022-11-23T03:27:53.067Z,0.00
2022-11-23T03:28:53.062Z,0.00
2022-11-23T03:29:53.051Z,0.00
2022-11-23T03:30:53.030Z,0.00
2022-11-23T03:31:53.023Z,0.00
2022-11-23T03:32:53.007Z,0.00
2022-11-23T03:33:53.001Z,0.00
2022-11-23T03:34:53.004Z,0.00
2022-11-23T03:35:52.966Z,0.00
2022-11-23T03:36:52.946Z,0.00
2022-11-23T03:37:52.933Z,0.00
2022-11-23T03:38:52.921Z,0.00
2022-11-23T03:39:52.911Z,0.00
2022-11-23T03:40:52.897Z,0.00
2022-11-23T03:41:52.879Z,0.00
2022-11-23T03:42:52.866Z,0.00
2022-11-23T03:43:52.853Z,0.00
2022-11-23T03:44:52.848Z,0.00
2022-11-23T03:45:52.833Z,0.00
2022-11-23T03:46:52.816Z,0.00
2022-11-23T03:47:52.807Z,0.00
2022-11-23T03:48:52.790Z,0.00
2022-11-23T03:49:52.779Z,0.00
2022-11-23T03:50:52.781Z,0.00
2022-11-23T03:51:52.748Z,0.00
2022-11-23T03:52:52.737Z,0.00
2022-11-23T03:53:52.721Z,0.00
2022-11-23T03:54:52.709Z,0.00
2022-11-23T03:55:52.698Z,0.00
2022-11-23T03:56:52.684Z,0.00
2022-11-23T03:57:52.667Z,0.00
2022-11-23T03:58:52.654Z,0.00
2022-11-23T03:59:52.644Z,0.00
2022-11-23T04:00:52.697Z,0.00
2022-11-23T04:01:52.614Z,0.00
2022-11-23T04:02:52.602Z,0.00
2022-11-23T04:03:52.586Z,0.00
2022-11-23T04:04:52.579Z,0.00
2022-11-23T04:05:52.560Z,0.00
2022-11-23T04:06:52.565Z,0.00
2022-11-23T04:07:52.527Z,0.00
2022-11-23T04:08:55.220Z,0.00
2022-11-23T04:09:53.524Z,0.00
2022-11-23T04:10:52.492Z,0.00
2022-11-23T04:11:52.481Z,0.00
2022-11-23T04:12:52.475Z,0.00
2022-11-23T04:13:52.452Z,0.00
2022-11-23T04:14:52.443Z,0.00
2022-11-23T04:15:52.426Z,0.00
2022-11-23T04:16:52.409Z,0.00
2022-11-23T04:17:52.396Z,0.00
2022-11-23T04:18:52.387Z,0.00
2022-11-23T04:19:52.374Z,0.00
2022-11-23T04:20:52.355Z,0.00
2022-11-23T04:21:52.343Z,0.00
2022-11-23T04:22:52.353Z,0.00
2022-11-23T04:23:52.325Z,0.00
2022-11-23T04:24:52.307Z,0.00
2022-11-23T04:25:52.288Z,0.00
2022-11-23T04:26:52.278Z,0.00
2022-11-23T04:27:52.268Z,0.00
2022-11-23T04:28:52.247Z,0.00
2022-11-23T04:29:52.240Z,0.00
2022-11-23T04:30:52.221Z,0.00
2022-11-23T04:31:52.211Z,0.00
2022-11-23T04:32:52.204Z,0.00
2022-11-23T04:33:52.195Z,0.00
2022-11-23T04:34:52.178Z,0.00
2022-11-23T04:35:52.166Z,0.00
2022-11-23T04:36:52.143Z,0.00
2022-11-23T04:37:52.138Z,0.00
2022-11-23T04:38:52.139Z,0.00
2022-11-23T04:39:52.108Z,0.00
2022-11-23T04:40:52.091Z,0.00
2022-11-23T04:41:52.082Z,0.00
2022-11-23T04:42:52.068Z,0.00
2022-11-23T04:43:52.058Z,0.00
2022-11-23T04:44:52.046Z,0.00
2022-11-23T04:45:52.030Z,0.00
2022-11-23T04:46:52.014Z,0.00
2022-11-23T04:47:52.003Z,0.00
2022-11-23T04:48:51.992Z,0.00
2022-11-23T04:49:51.983Z,0.00
2022-11-23T04:50:55.605Z,0.00
2022-11-23T04:51:51.953Z,0.00
2022-11-23T04:52:51.930Z,0.00
2022-11-23T04:53:51.926Z,0.00
2022-11-23T04:54:51.927Z,0.00
2022-11-23T04:55:51.895Z,0.00
2022-11-23T04:56:51.875Z,0.00
2022-11-23T04:57:51.874Z,0.00
2022-11-23T04:58:51.852Z,0.00
2022-11-23T04:59:51.846Z,0.00
2022-11-23T05:00:51.880Z,0.00
2022-11-23T05:01:51.826Z,0.00
2022-11-23T05:02:51.808Z,0.00
2022-11-23T05:03:51.791Z,0.00
2022-11-23T05:04:51.774Z,0.00
2022-11-23T05:05:51.761Z,0.00
2022-11-23T05:06:51.746Z,0.00
2022-11-23T05:07:51.735Z,0.00
2022-11-23T05:08:51.732Z,0.00
2022-11-23T05:09:51.718Z,0.00
2022-11-23T05:10:51.717Z,0.00
2022-11-23T05:11:51.689Z,0.00
2022-11-23T05:12:51.668Z,0.00
2022-11-23T05:13:51.657Z,0.00
2022-11-23T05:14:51.645Z,0.00
2022-11-23T05:15:51.636Z,0.00
2022-11-23T05:16:51.614Z,0.00
2022-11-23T05:17:56.383Z,0.00
2022-11-23T05:18:52.613Z,0.00
2022-11-23T05:19:51.580Z,0.00
2022-11-23T05:20:51.557Z,0.00
2022-11-23T05:21:51.549Z,0.00
2022-11-23T05:22:51.534Z,0.00
2022-11-23T05:23:51.522Z,0.00
2022-11-23T05:24:51.516Z,0.00
2022-11-23T05:25:51.504Z,0.00
2022-11-23T05:26:56.028Z,0.00
2022-11-23T05:27:51.472Z,0.00
2022-11-23T05:28:51.457Z,0.00
2022-11-23T05:29:51.445Z,0.00
2022-11-23T05:30:51.430Z,0.00
2022-11-23T05:31:51.415Z,0.00
2022-11-23T05:32:51.397Z,0.00
2022-11-23T05:33:51.388Z,0.00
2022-11-23T05:34:51.372Z,0.00
2022-11-23T05:35:51.361Z,0.00
2022-11-23T05:36:51.350Z,0.00
2022-11-23T05:37:51.347Z,0.00
2022-11-23T05:38:51.320Z,0.00
2022-11-23T05:39:51.309Z,0.00
2022-11-23T05:40:51.290Z,0.00
2022-11-23T05:41:51.286Z,0.00
2022-11-23T05:42:51.290Z,0.00
2022-11-23T05:43:51.254Z,0.00
2022-11-23T05:44:51.238Z,0.00
2022-11-23T05:45:51.225Z,0.00
2022-11-23T05:46:51.215Z,0.00
2022-11-23T05:47:51.208Z,0.00
2022-11-23T05:48:51.189Z,0.00
2022-11-23T05:49:51.185Z,0.00
2022-11-23T05:50:51.160Z,0.00
2022-11-23T05:51:51.147Z,0.00
2022-11-23T05:52:51.134Z,0.00
2022-11-23T05:53:51.126Z,0.00
2022-11-23T05:54:51.109Z,0.00
2022-11-23T05:55:51.097Z,0.00
2022-11-23T05:56:51.079Z,0.00
2022-11-23T05:57:51.075Z,0.00
2022-11-23T05:58:51.073Z,0.00
2022-11-23T05:59:51.040Z,0.00
2022-11-23T06:00:51.023Z,0.00
2022-11-23T06:01:51.019Z,0.00
2022-11-23T06:02:51.005Z,0.00
2022-11-23T06:03:51.050Z,0.00
2022-11-23T06:04:50.979Z,0.00
2022-11-23T06:05:50.970Z,0.00
2022-11-23T06:06:50.949Z,0.00
2022-11-23T06:07:50.979Z,0.00
2022-11-23T06:08:50.917Z,0.00
2022-11-23T06:09:50.911Z,4.00
2022-11-23T06:10:51.094Z,4.00
2022-11-23T06:11:50.883Z,0.00
2022-11-23T06:12:50.873Z,0.00
2022-11-23T06:13:50.856Z,4.00
2022-11-23T06:14:50.870Z,4.00
2022-11-23T06:15:50.831Z,4.00
2022-11-23T06:16:50.818Z,4.00
2022-11-23T06:17:50.808Z,8.00
2022-11-23T06:18:50.791Z,4.00
2022-11-23T06:19:50.776Z,8.00
2022-11-23T06:20:50.760Z,12.00
2022-11-23T06:21:50.850Z,12.00
2022-11-23T06:22:50.738Z,16.00
2022-11-23T06:23:50.721Z,16.00
2022-11-23T06:24:50.707Z,20.00
2022-11-23T06:25:50.696Z,24.00
2022-11-23T06:26:50.689Z,28.00
2022-11-23T06:27:50.670Z,32.00
2022-11-23T06:28:50.666Z,40.00
2022-11-23T06:29:50.649Z,48.00
2022-11-23T06:30:50.655Z,52.00
2022-11-23T06:31:50.622Z,60.00
2022-11-23T06:32:50.609Z,68.00
2022-11-23T06:33:50.600Z,76.00
2022-11-23T06:34:50.584Z,84.00
2022-11-23T06:35:50.570Z,92.00
2022-11-23T06:36:50.548Z,100.00
2022-11-23T06:37:50.537Z,116.00
2022-11-23T06:38:50.522Z,124.00
2022-11-23T06:39:50.512Z,144.00
2022-11-23T06:40:50.501Z,156.00
2022-11-23T06:41:50.489Z,172.00
2022-11-23T06:42:50.473Z,184.00
2022-11-23T06:43:50.459Z,204.00
2022-11-23T06:44:50.443Z,216.00
2022-11-23T06:45:50.428Z,232.00
2022-11-23T06:46:50.440Z,248.00
2022-11-23T06:47:50.405Z,260.00
2022-11-23T06:48:50.390Z,280.00
2022-11-23T06:49:50.377Z,304.00
2022-11-23T06:50:50.367Z,324.00
2022-11-23T06:51:50.352Z,344.00
2022-11-23T06:52:50.343Z,368.00
2022-11-23T06:53:50.329Z,388.00
2022-11-23T06:54:50.317Z,408.00
2022-11-23T06:55:50.308Z,428.00
2022-11-23T06:56:50.290Z,452.00
2022-11-23T06:57:50.287Z,480.00
2022-11-23T06:58:50.262Z,508.00
2022-11-23T06:59:50.249Z,540.00
2022-11-23T07:00:50.229Z,568.00
2022-11-23T07:01:50.275Z,596.00
2022-11-23T07:02:50.227Z,620.00
2022-11-23T07:03:50.262Z,644.00
2022-11-23T07:04:50.179Z,672.00
2022-11-23T07:05:50.163Z,700.00
2022-11-23T07:06:50.146Z,728.00
2022-11-23T07:07:50.231Z,756.00
2022-11-23T07:08:50.132Z,784.00
2022-11-23T07:09:50.113Z,808.00
2022-11-23T07:10:50.101Z,836.00
2022-11-23T07:11:50.089Z,860.00
2022-11-23T07:12:50.070Z,888.00
2022-11-23T07:13:50.054Z,920.00
2022-11-23T07:14:50.041Z,944.00
2022-11-23T07:15:50.025Z,968.00
2022-11-23T07:16:50.027Z,992.00
2022-11-23T07:17:50.014Z,1012.00
2022-11-23T07:18:50.016Z,1032.00
2022-11-23T07:19:49.983Z,1052.00
2022-11-23T07:20:49.965Z,1072.00
2022-11-23T07:21:49.947Z,1088.00
2022-11-23T07:22:49.936Z,1116.00
2022-11-23T07:23:49.925Z,1136.00
2022-11-23T07:24:49.911Z,1152.00
2022-11-23T07:25:49.891Z,1176.00
2022-11-23T07:26:49.881Z,1196.00
2022-11-23T07:27:49.866Z,1212.00
2022-11-23T07:28:49.854Z,1232.00
2022-11-23T07:29:49.850Z,1256.00
2022-11-23T07:30:49.824Z,1276.00
2022-11-23T07:31:49.811Z,1300.00
2022-11-23T07:32:49.808Z,1312.00
2022-11-23T07:33:49.793Z,1328.00
2022-11-23T07:34:49.799Z,1336.00
2022-11-23T07:35:49.762Z,1356.00
2022-11-23T07:36:49.749Z,1372.00
2022-11-23T07:37:49.733Z,1388.00
2022-11-23T07:38:49.726Z,1400.00
2022-11-23T07:39:57.476Z,1412.00
2022-11-23T07:40:50.718Z,1428.00
2022-11-23T07:41:51.428Z,1444.00
2022-11-23T07:42:49.663Z,1460.00
2022-11-23T07:43:49.650Z,1472.00
2022-11-23T07:44:49.645Z,1488.00
2022-11-23T07:45:49.630Z,1508.00
2022-11-23T07:46:49.615Z,1524.00
2022-11-23T07:47:49.604Z,1548.00
2022-11-23T07:48:49.583Z,1572.00
2022-11-23T07:49:49.567Z,1600.00
2022-11-23T07:50:49.582Z,1636.00
2022-11-23T07:51:49.544Z,1668.00
2022-11-23T07:52:49.540Z,1696.00
2022-11-23T07:53:49.525Z,1732.00
2022-11-23T07:54:49.517Z,1764.00
2022-11-23T07:55:49.496Z,1804.00
2022-11-23T07:56:49.495Z,1852.00
2022-11-23T07:57:49.469Z,1892.00
2022-11-23T07:58:49.459Z,1932.00
2022-11-23T07:59:49.449Z,1968.00
2022-11-23T08:00:49.430Z,2008.00
2022-11-23T08:01:53.126Z,2040.00
2022-11-23T08:03:19.481Z,2104.00
2022-11-23T08:03:50.426Z,2256.00
2022-11-23T08:04:49.375Z,2400.00
2022-11-23T08:05:49.361Z,2540.00
2022-11-23T08:06:49.368Z,2648.00
2022-11-23T08:07:49.350Z,2960.00
2022-11-23T08:08:49.327Z,3076.00
2022-11-23T08:09:49.308Z,2796.00
2022-11-23T08:10:53.492Z,2576.00
2022-11-23T08:11:49.280Z,2556.00
2022-11-23T08:12:49.272Z,2556.00
2022-11-23T08:13:49.257Z,2608.00
2022-11-23T08:14:49.246Z,2716.00
2022-11-23T08:15:54.295Z,2740.00
2022-11-23T08:16:49.218Z,2744.00
2022-11-23T08:17:49.198Z,2756.00
2022-11-23T08:18:49.187Z,2792.00
2022-11-23T08:19:49.167Z,2724.00
2022-11-23T08:20:49.172Z,2700.00
2022-11-23T08:21:49.147Z,2684.00
2022-11-23T08:22:49.157Z,2688.00
2022-11-23T08:23:49.149Z,2680.00
2022-11-23T08:24:49.106Z,2672.00
2022-11-23T08:25:49.091Z,2668.00
2022-11-23T08:26:49.096Z,2656.00
2022-11-23T08:27:49.063Z,2680.00
2022-11-23T08:28:49.046Z,2704.00
2022-11-23T08:29:49.030Z,2744.00
2022-11-23T08:30:49.019Z,2752.00
2022-11-23T08:31:49.001Z,2748.00
2022-11-23T08:32:48.990Z,2720.00
2022-11-23T08:33:48.980Z,2704.00
2022-11-23T08:34:48.963Z,2720.00
2022-11-23T08:35:48.949Z,2728.00
2022-11-23T08:36:48.938Z,2716.00
2022-11-23T08:37:48.927Z,2680.00
2022-11-23T08:38:48.947Z,2640.00
2022-11-23T08:39:48.901Z,2604.00
2022-11-23T08:40:48.891Z,2560.00
2022-11-23T08:41:48.876Z,2536.00
2022-11-23T08:42:48.863Z,2508.00
2022-11-23T08:43:48.844Z,2460.00
2022-11-23T08:44:48.827Z,2424.00
2022-11-23T08:45:48.819Z,2384.00
2022-11-23T08:46:48.807Z,2368.00
2022-11-23T08:47:48.784Z,2332.00
2022-11-23T08:48:48.781Z,2312.00
2022-11-23T08:49:48.759Z,2292.00
2022-11-23T08:50:48.747Z,2280.00
2022-11-23T08:51:50.411Z,2272.00
2022-11-23T08:52:48.720Z,2276.00
2022-11-23T08:53:48.711Z,2292.00
2022-11-23T08:54:48.721Z,2324.00
2022-11-23T08:55:48.683Z,2356.00
2022-11-23T08:56:48.668Z,2368.00
2022-11-23T08:57:48.651Z,2376.00
2022-11-23T08:58:48.642Z,2348.00
2022-11-23T08:59:48.629Z,2324.00
2022-11-23T09:00:48.612Z,2336.00
2022-11-23T09:01:48.647Z,2352.00
2022-11-23T09:02:48.588Z,2388.00
2022-11-23T09:03:48.574Z,2412.00
2022-11-23T09:04:48.561Z,2408.00
2022-11-23T09:05:48.545Z,2424.00
2022-11-23T09:06:48.537Z,2452.00
2022-11-23T09:07:48.651Z,2480.00
2022-11-23T09:08:48.507Z,2488.00
2022-11-23T09:09:48.490Z,2456.00
2022-11-23T09:10:48.499Z,2448.00
2022-11-23T09:11:48.461Z,2444.00
2022-11-23T09:12:48.454Z,2348.00
2022-11-23T09:13:48.446Z,2304.00
2022-11-23T09:14:48.426Z,2288.00
2022-11-23T09:15:48.413Z,2280.00
2022-11-23T09:16:48.400Z,2280.00
2022-11-23T09:17:48.385Z,2296.00
2022-11-23T09:18:48.372Z,2736.00
2022-11-23T09:19:48.357Z,3100.00
2022-11-23T09:20:48.344Z,2552.00
2022-11-23T09:21:48.532Z,2292.00
2022-11-23T09:22:48.317Z,2424.00
2022-11-23T09:23:48.301Z,2452.00
2022-11-23T09:24:48.318Z,2272.00
2022-11-23T09:25:48.273Z,2268.00
2022-11-23T09:26:48.281Z,2260.00
2022-11-23T09:27:48.243Z,2244.00
2022-11-23T09:28:48.231Z,2240.00
2022-11-23T09:29:48.215Z,2320.00
2022-11-23T09:30:48.206Z,2324.00
2022-11-23T09:31:48.193Z,2248.00
2022-11-23T09:32:48.187Z,2248.00
2022-11-23T09:33:48.168Z,2288.00
2022-11-23T09:34:48.157Z,2284.00
2022-11-23T09:35:48.144Z,2232.00
2022-11-23T09:36:48.128Z,2236.00
2022-11-23T09:37:48.118Z,2232.00
2022-11-23T09:38:56.962Z,2232.00
2022-11-23T09:39:49.107Z,2228.00
2022-11-23T09:40:48.072Z,2224.00
2022-11-23T09:41:48.059Z,2216.00
2022-11-23T09:42:48.079Z,2212.00
2022-11-23T09:43:48.038Z,2216.00
2022-11-23T09:44:48.017Z,2224.00
2022-11-23T09:45:48.006Z,2232.00
2022-11-23T09:46:47.991Z,2224.00
2022-11-23T09:47:47.974Z,2232.00
2022-11-23T09:53:48.629Z,2296.00
2022-11-23T09:54:54.609Z,2276.00
2022-11-23T09:55:48.586Z,2264.00
2022-11-23T09:56:48.377Z,2264.00
2022-11-23T09:57:48.362Z,2264.00
2022-11-23T09:58:48.377Z,2268.00
2022-11-23T09:59:48.336Z,2276.00
2022-11-23T10:00:48.327Z,2276.00
2022-11-23T10:01:48.461Z,2280.00
2022-11-23T10:02:48.293Z,2272.00
2022-11-23T10:03:49.413Z,2276.00
2022-11-23T10:04:48.267Z,2284.00
2022-11-23T10:05:48.252Z,2292.00
2022-11-23T10:06:48.244Z,2300.00
2022-11-23T10:07:48.273Z,2324.00
2022-11-23T10:08:48.212Z,2340.00
2022-11-23T10:09:48.213Z,2360.00
2022-11-23T10:10:48.192Z,2372.00
2022-11-23T10:11:48.177Z,2380.00
2022-11-23T10:12:48.162Z,2400.00
2022-11-23T10:13:48.148Z,2428.00
2022-11-23T10:14:48.160Z,2464.00
2022-11-23T10:15:48.118Z,2504.00
2022-11-23T10:16:48.104Z,2528.00
2022-11-23T10:17:48.093Z,2556.00
2022-11-23T10:18:48.075Z,2596.00
2022-11-23T10:19:48.067Z,2676.00
2022-11-23T10:20:48.050Z,2732.00
2022-11-23T10:21:48.032Z,2808.00
2022-11-23T10:22:48.024Z,2976.00
2022-11-23T10:23:48.009Z,3988.00
2022-11-23T10:24:48.002Z,5980.00
2022-11-23T10:25:48.036Z,8064.00
2022-11-23T10:26:47.975Z,8724.00
2022-11-23T10:27:47.973Z,5732.00
2022-11-23T10:28:47.951Z,4048.00
2022-11-23T10:29:47.931Z,5016.00
2022-11-23T10:30:47.971Z,5516.00
2022-11-23T10:31:50.419Z,4820.00
2022-11-23T10:32:47.885Z,3216.00
2022-11-23T10:33:47.874Z,2972.00
2022-11-23T10:34:47.865Z,2996.00
2022-11-23T10:35:47.850Z,5192.00
2022-11-23T10:36:47.835Z,6280.00
2022-11-23T10:37:47.820Z,5800.00
2022-11-23T10:38:47.813Z,7812.00
2022-11-23T10:39:47.795Z,7416.00
2022-11-23T10:40:47.781Z,4416.00
2022-11-23T10:41:47.765Z,3988.00
2022-11-23T10:42:47.749Z,4920.00
2022-11-23T10:43:47.732Z,3944.00
2022-11-23T10:44:47.720Z,3476.00
2022-11-23T10:45:47.707Z,5384.00
2022-11-23T10:46:47.719Z,5964.00
2022-11-23T10:47:47.683Z,3532.00
2022-11-23T10:48:47.668Z,4432.00
2022-11-23T10:49:47.653Z,7696.00
2022-11-23T10:50:47.657Z,6700.00
2022-11-23T10:51:47.631Z,6032.00
2022-11-23T10:52:47.623Z,8776.00
2022-11-23T10:53:47.610Z,10560.00
2022-11-23T10:54:47.593Z,8880.00
2022-11-23T10:55:47.582Z,6000.00
2022-11-23T10:56:47.567Z,8372.00
2022-11-23T10:57:47.555Z,11044.00
2022-11-23T10:58:47.537Z,10276.00
2022-11-23T10:59:47.520Z,8156.00
2022-11-23T11:00:47.510Z,9700.00
2022-11-23T11:01:47.505Z,9116.00
2022-11-23T11:02:47.502Z,6420.00
2022-11-23T11:03:47.468Z,4564.00
2022-11-23T11:04:47.455Z,4296.00
2022-11-23T11:06:08.248Z,4616.00
2022-11-23T11:06:48.448Z,5896.00
2022-11-23T11:07:47.536Z,6088.00
2022-11-23T11:08:47.400Z,5800.00
2022-11-23T11:09:47.387Z,7584.00
2022-11-23T11:10:47.371Z,9136.00
2022-11-23T11:11:47.357Z,8456.00
2022-11-23T11:12:47.345Z,8132.00
2022-11-23T11:13:47.335Z,8108.00
2022-11-23T11:14:47.705Z,9824.00
2022-11-23T11:15:47.859Z,11788.00
2022-11-23T11:16:47.765Z,10592.00
2022-11-23T11:17:47.274Z,9180.00
2022-11-23T11:18:47.285Z,13376.00
2022-11-23T11:19:47.246Z,15680.00
2022-11-23T11:20:47.232Z,15584.00
2022-11-23T11:21:47.222Z,15328.00
2022-11-23T11:22:48.016Z,14912.00
2022-11-23T11:23:47.195Z,15072.00
2022-11-23T11:24:47.183Z,15104.00
2022-11-23T11:25:47.176Z,15296.00
2022-11-23T11:26:47.155Z,15712.00
2022-11-23T11:27:47.143Z,15616.00
2022-11-23T11:28:47.131Z,15808.00
2022-11-23T11:29:47.113Z,15648.00
2022-11-23T11:30:47.095Z,14432.00
2022-11-23T11:31:47.082Z,12400.00
2022-11-23T11:32:47.069Z,12992.00
2022-11-23T11:33:47.058Z,14272.00
2022-11-23T11:34:47.070Z,15488.00
2022-11-23T11:35:47.036Z,15968.00
2022-11-23T11:36:47.017Z,15328.00
2022-11-23T11:37:47.011Z,14752.00
2022-11-23T11:39:07.814Z,13248.00
2022-11-23T11:39:48.015Z,13664.00
2022-11-23T11:40:46.963Z,16320.00
2022-11-23T11:41:47.010Z,16768.00
2022-11-23T11:42:46.934Z,15936.00
2022-11-23T11:43:46.921Z,15904.00
2022-11-23T11:44:46.903Z,15840.00
2022-11-23T11:46:06.416Z,15712.00
2022-11-23T11:46:47.904Z,15392.00
2022-11-23T11:47:46.870Z,15520.00
2022-11-23T11:48:46.860Z,15968.00
2022-11-23T11:49:46.852Z,16288.00
2022-11-23T11:50:46.847Z,16608.00
2022-11-23T11:51:46.815Z,16608.00
2022-11-23T11:52:46.804Z,16768.00
2022-11-23T11:53:46.792Z,16960.00
2022-11-23T11:54:46.790Z,16352.00
2022-11-23T11:55:46.818Z,16384.00
2022-11-23T11:56:46.742Z,16320.00
2022-11-23T11:57:46.756Z,15968.00
2022-11-23T11:58:46.718Z,16160.00
2022-11-23T11:59:46.710Z,15840.00
2022-11-23T12:00:46.687Z,16128.00
2022-11-23T12:01:46.679Z,16160.00
2022-11-23T12:02:46.683Z,16512.00
2022-11-23T12:03:46.652Z,16672.00
2022-11-23T12:04:46.638Z,16576.00
2022-11-23T12:05:46.625Z,16416.00
2022-11-23T12:06:46.631Z,16032.00
2022-11-23T12:07:46.694Z,15872.00
2022-11-23T12:08:46.579Z,15776.00
2022-11-23T12:09:46.567Z,15488.00
2022-11-23T12:10:46.555Z,15712.00
2022-11-23T12:11:46.549Z,15584.00
2022-11-23T12:12:46.532Z,15584.00
2022-11-23T12:13:46.518Z,15360.00
2022-11-23T12:14:46.508Z,15392.00
2022-11-23T12:15:50.531Z,15392.00
2022-11-23T12:16:52.230Z,15616.00
2022-11-23T12:17:47.489Z,15680.00
2022-11-23T12:18:46.449Z,15712.00
2022-11-23T12:19:46.434Z,15648.00
2022-11-23T12:20:46.417Z,15744.00
2022-11-23T12:21:50.121Z,15680.00
2022-11-23T12:22:47.437Z,15360.00
2022-11-23T12:23:46.382Z,15456.00
2022-11-23T12:24:46.367Z,15392.00
2022-11-23T12:25:46.356Z,15712.00
2022-11-23T12:26:46.356Z,15744.00
2022-11-23T12:27:48.841Z,15520.00
2022-11-23T12:28:46.317Z,15136.00
2022-11-23T12:29:46.309Z,15136.00
2022-11-23T12:30:46.296Z,15232.00
2022-11-23T12:31:46.280Z,14976.00
2022-11-23T12:32:46.268Z,14624.00
2022-11-23T12:33:46.255Z,14336.00
2022-11-23T12:34:46.238Z,14464.00
2022-11-23T12:35:46.227Z,14528.00
2022-11-23T12:36:46.214Z,14560.00
2022-11-23T12:37:46.200Z,14496.00
2022-11-23T12:38:46.222Z,14528.00
2022-11-23T12:39:46.180Z,14304.00
2022-11-23T12:40:46.164Z,14240.00
2022-11-23T12:41:46.154Z,13856.00
2022-11-23T12:42:46.138Z,13600.00
2022-11-23T12:43:46.294Z,13376.00
2022-11-23T12:44:46.107Z,13408.00